createdAt,value
2023-08-12T00:02:18.649Z,99.90
2023-08-12T00:04:48.017Z,99.90
2023-08-12T00:07:15.066Z,99.90
2023-08-12T00:09:42.557Z,99.90
2023-08-12T00:12:09.623Z,99.90
2023-08-12T00:14:36.739Z,99.90
2023-08-12T00:17:03.900Z,99.90
2023-08-12T00:19:30.934Z,99.90
2023-08-12T00:21:57.982Z,99.90
2023-08-12T00:24:24.991Z,99.90
2023-08-12T00:26:52.397Z,99.90
2023-08-12T00:29:19.496Z,99.90
2023-08-12T00:31:46.526Z,99.90
2023-08-12T00:34:13.638Z,99.90
2023-08-12T00:36:40.692Z,99.90
2023-08-12T00:39:07.838Z,99.90
2023-08-12T00:41:34.922Z,99.90
2023-08-12T00:44:01.928Z,99.90
2023-08-12T00:46:29.403Z,99.90
2023-08-12T00:48:56.589Z,99.90
2023-08-12T00:51:23.800Z,99.90
2023-08-12T00:53:52.543Z,99.90
2023-08-12T00:56:22.247Z,99.90
2023-08-12T00:58:49.878Z,99.90
2023-08-12T01:01:19.139Z,99.90
2023-08-12T01:03:46.735Z,99.90
2023-08-12T01:06:14.449Z,99.90
2023-08-12T01:08:41.574Z,99.90
2023-08-12T01:12:05.781Z,99.90
2023-08-12T01:14:46.947Z,99.90
2023-08-12T01:17:16.987Z,99.90
2023-08-12T01:19:46.219Z,99.90
2023-08-12T01:22:14.201Z,99.90
2023-08-12T01:24:43.832Z,99.90
2023-08-12T01:27:15.578Z,99.90
2023-08-12T01:29:46.776Z,99.90
2023-08-12T01:32:40.328Z,99.90
2023-08-12T01:35:18.659Z,99.90
2023-08-12T01:37:47.230Z,99.90
2023-08-12T01:40:18.088Z,99.90
2023-08-12T01:42:46.457Z,99.90
2023-08-12T01:45:13.523Z,99.90
2023-08-12T01:47:45.706Z,99.90
2023-08-12T01:50:12.909Z,99.90
2023-08-12T01:52:39.953Z,99.90
2023-08-12T01:55:07.336Z,99.90
2023-08-12T01:57:34.425Z,99.90
2023-08-12T02:00:03.636Z,99.90
2023-08-12T02:02:30.799Z,99.90
2023-08-12T02:04:57.975Z,99.90
2023-08-12T02:07:24.985Z,99.90
2023-08-12T02:09:52.018Z,99.90
2023-08-12T02:12:19.053Z,99.90
2023-08-12T02:14:46.148Z,99.90
2023-08-12T02:17:13.396Z,99.90
2023-08-12T02:19:40.688Z,99.90
2023-08-12T02:22:07.771Z,99.90
2023-08-12T02:24:34.846Z,99.90
2023-08-12T02:27:01.873Z,99.90
2023-08-12T02:29:28.939Z,99.90
2023-08-12T02:31:55.980Z,99.90
2023-08-12T02:34:23.100Z,99.90
2023-08-12T02:36:50.115Z,99.90
2023-08-12T02:39:17.842Z,99.90
2023-08-12T02:41:44.924Z,99.90
2023-08-12T02:44:11.900Z,99.90
2023-08-12T02:46:38.956Z,99.90
2023-08-12T02:49:06.064Z,99.90
2023-08-12T02:51:33.063Z,99.90
2023-08-12T02:54:00.211Z,99.90
2023-08-12T02:56:27.267Z,99.90
2023-08-12T02:58:54.335Z,99.90
2023-08-12T03:01:23.218Z,99.90
2023-08-12T03:03:50.272Z,99.90
2023-08-12T03:06:17.637Z,99.90
2023-08-12T03:08:44.677Z,99.90
2023-08-12T03:11:11.731Z,99.90
2023-08-12T03:13:38.713Z,99.90
2023-08-12T03:16:05.847Z,99.90
2023-08-12T03:21:00.356Z,99.90
2023-08-12T03:25:54.793Z,99.90
2023-08-12T03:28:21.897Z,99.90
2023-08-12T03:30:53.532Z,99.90
2023-08-12T03:33:20.977Z,99.90
2023-08-12T03:35:49.324Z,99.90
2023-08-12T03:40:44.519Z,99.90
2023-08-12T03:43:11.731Z,99.90
2023-08-12T03:45:46.294Z,99.90
2023-08-12T03:48:13.513Z,99.90
2023-08-12T03:50:43.443Z,99.90
2023-08-12T03:53:10.621Z,99.90
2023-08-12T03:55:37.611Z,99.90
2023-08-12T03:58:05.270Z,99.90
2023-08-12T04:00:32.471Z,99.90
2023-08-12T04:02:59.722Z,99.90
2023-08-12T04:05:27.016Z,99.90
2023-08-12T04:07:54.211Z,99.90
2023-08-12T04:10:21.318Z,99.90
2023-08-12T04:12:48.417Z,99.90
2023-08-12T04:15:15.569Z,99.90
2023-08-12T04:17:42.895Z,99.90
2023-08-12T04:30:20.568Z,99.90
2023-08-12T04:32:47.731Z,99.90
2023-08-12T04:35:14.921Z,99.90
2023-08-12T04:37:42.121Z,99.90
2023-08-12T04:40:10.223Z,99.90
2023-08-12T04:42:37.711Z,99.90
2023-08-12T04:45:08.634Z,99.90
2023-08-12T04:47:35.766Z,99.90
2023-08-12T04:50:03.765Z,99.90
2023-08-12T04:52:30.824Z,99.90
2023-08-12T04:54:58.001Z,99.90
2023-08-12T04:57:25.076Z,99.90
2023-08-12T04:59:56.471Z,99.90
2023-08-12T05:02:23.900Z,99.90
2023-08-12T05:04:52.932Z,99.90
2023-08-12T05:07:20.253Z,99.90
2023-08-12T05:09:47.558Z,99.90
2023-08-12T05:12:17.746Z,99.90
2023-08-12T05:14:48.575Z,99.90
2023-08-12T05:17:15.680Z,99.90
2023-08-12T05:19:42.723Z,99.90
2023-08-12T05:22:10.274Z,99.90
2023-08-12T05:24:37.611Z,99.90
2023-08-12T05:27:05.517Z,99.90
2023-08-12T05:29:32.840Z,99.90
2023-08-12T05:31:59.954Z,99.90
2023-08-12T05:34:28.253Z,99.90
2023-08-12T05:36:57.625Z,99.90
2023-08-12T05:39:24.721Z,99.90
2023-08-12T05:41:53.623Z,99.90
2023-08-12T05:44:20.761Z,99.90
2023-08-12T05:46:47.757Z,99.90
2023-08-12T05:51:07.401Z,99.90
2023-08-12T06:01:58.837Z,99.90
2023-08-12T06:04:26.079Z,99.90
2023-08-12T06:06:53.293Z,99.90
2023-08-12T06:09:20.497Z,99.90
2023-08-12T06:11:47.467Z,99.90
2023-08-12T06:14:14.694Z,99.90
2023-08-12T06:16:41.987Z,99.90
2023-08-12T06:19:09.541Z,99.90
2023-08-12T06:21:36.582Z,99.90
2023-08-12T06:24:03.853Z,99.90
2023-08-12T06:26:30.886Z,99.90
2023-08-12T06:28:57.903Z,99.90
2023-08-12T06:31:24.955Z,99.90
2023-08-12T06:33:52.163Z,99.90
2023-08-12T06:36:19.185Z,99.90
2023-08-12T06:38:46.213Z,99.90
2023-08-12T06:41:13.207Z,99.90
2023-08-12T06:43:40.190Z,99.20
2023-08-12T06:46:07.296Z,99.00
2023-08-12T06:48:34.494Z,96.90
2023-08-12T06:51:05.224Z,96.30
2023-08-12T06:53:32.378Z,93.90
2023-08-12T06:55:59.528Z,91.70
2023-08-12T06:58:26.544Z,90.60
2023-08-12T07:00:54.448Z,88.80
2023-08-12T07:03:21.796Z,87.60
2023-08-12T07:05:48.910Z,85.70
2023-08-12T07:08:15.977Z,82.80
2023-08-12T07:10:45.735Z,79.10
2023-08-12T07:13:12.798Z,77.30
2023-08-12T07:15:39.908Z,75.30
2023-08-12T07:18:07.113Z,75.20
2023-08-12T07:20:34.213Z,75.30
2023-08-12T07:23:04.351Z,73.80
2023-08-12T07:25:31.553Z,74.00
2023-08-12T07:27:59.865Z,74.80
2023-08-12T07:30:27.078Z,75.60
2023-08-12T07:32:54.295Z,75.80
2023-08-12T07:35:35.611Z,75.30
2023-08-12T07:38:02.976Z,75.90
2023-08-12T07:40:32.827Z,76.00
2023-08-12T07:43:00.077Z,75.00
2023-08-12T07:45:27.392Z,72.60
2023-08-12T07:47:55.126Z,73.10
2023-08-12T07:50:22.493Z,73.50
2023-08-12T07:52:49.731Z,70.50
2023-08-12T07:55:17.403Z,68.00
2023-08-12T07:57:45.904Z,68.80
2023-08-12T08:00:13.634Z,67.20
2023-08-12T08:05:09.244Z,68.70
2023-08-12T08:07:36.528Z,68.50
2023-08-12T08:10:04.172Z,65.20
2023-08-12T08:12:31.220Z,62.30
2023-08-12T08:14:58.267Z,58.50
2023-08-12T08:17:28.075Z,55.90
2023-08-12T08:19:55.130Z,53.60
2023-08-12T08:22:22.156Z,55.80
2023-08-12T08:24:49.132Z,54.90
2023-08-12T08:27:16.191Z,54.00
2023-08-12T08:29:43.262Z,54.50
2023-08-12T08:32:11.831Z,56.10
2023-08-12T08:34:39.072Z,53.90
2023-08-12T08:37:06.279Z,52.60
2023-08-12T08:39:33.805Z,53.40
2023-08-12T08:42:01.273Z,51.30
2023-08-12T08:44:36.400Z,52.50
2023-08-12T08:47:04.639Z,51.10
2023-08-12T08:49:33.258Z,50.20
2023-08-12T08:52:01.576Z,47.30
2023-08-12T08:54:29.470Z,48.10
2023-08-12T08:57:00.441Z,48.90
2023-08-12T08:59:37.544Z,48.80
2023-08-12T09:02:06.723Z,49.90
2023-08-12T09:04:35.187Z,49.80
2023-08-12T09:07:03.156Z,50.60
2023-08-12T09:09:30.413Z,50.70
2023-08-12T09:11:57.712Z,48.70
2023-08-12T09:14:24.975Z,48.50
2023-08-12T09:16:52.059Z,49.80
2023-08-12T09:19:19.311Z,50.20
2023-08-12T09:21:54.938Z,50.20
2023-08-12T09:24:26.775Z,49.80
2023-08-12T09:26:56.064Z,47.80
2023-08-12T09:29:34.704Z,45.80
2023-08-12T09:32:16.461Z,46.20
2023-08-12T09:34:52.426Z,49.20
2023-08-12T09:37:23.116Z,49.40
2023-08-12T09:40:01.408Z,48.10
2023-08-12T09:42:29.803Z,48.70
2023-08-12T09:44:58.477Z,48.00
2023-08-12T09:47:28.530Z,49.00
2023-08-12T09:57:07.599Z,48.00
2023-08-12T09:59:56.139Z,47.00
2023-08-12T10:02:32.204Z,47.70
2023-08-12T10:05:03.555Z,48.30
2023-08-12T10:07:31.309Z,47.90
2023-08-12T10:09:59.423Z,48.40
2023-08-12T10:12:37.193Z,46.50
2023-08-12T10:15:16.184Z,47.00
2023-08-12T10:17:49.270Z,48.60
2023-08-12T10:20:28.964Z,50.00
2023-08-12T10:23:08.228Z,48.20
2023-08-12T10:28:08.904Z,47.20
2023-08-12T10:33:18.263Z,44.70
2023-08-12T10:36:00.432Z,46.40
2023-08-12T10:41:17.041Z,48.30
2023-08-12T10:44:04.677Z,49.70
2023-08-12T10:46:37.345Z,51.10
2023-08-12T10:51:54.097Z,50.70
2023-08-12T10:54:31.671Z,50.20
2023-08-12T10:57:05.437Z,50.30
2023-08-12T10:59:47.921Z,48.00
2023-08-12T11:02:35.222Z,47.20
2023-08-12T11:05:11.808Z,46.10
2023-08-12T11:07:42.543Z,48.40
2023-08-12T11:10:16.700Z,49.70
2023-08-12T11:12:54.196Z,48.40
2023-08-12T11:15:33.538Z,48.00
2023-08-12T11:18:04.908Z,46.30
2023-08-12T11:20:32.770Z,47.90
2023-08-12T11:23:01.326Z,48.40
2023-08-12T11:25:31.956Z,48.60
2023-08-12T11:27:59.899Z,49.40
2023-08-12T11:30:29.588Z,49.70
2023-08-12T11:32:59.854Z,50.60
2023-08-12T11:35:27.472Z,49.90
2023-08-12T11:37:59.268Z,49.10
2023-08-12T11:40:28.554Z,48.10
2023-08-12T11:42:56.449Z,46.80
2023-08-12T11:45:27.099Z,48.60
2023-08-12T11:47:55.938Z,48.40
2023-08-12T11:50:27.420Z,48.60
2023-08-12T11:52:57.323Z,49.30
2023-08-12T11:55:25.900Z,47.60
2023-08-12T11:57:53.903Z,48.50
2023-08-12T12:00:21.726Z,46.50
2023-08-12T12:02:57.342Z,48.20
2023-08-12T12:05:33.483Z,48.20
2023-08-12T12:08:01.004Z,49.20
2023-08-12T12:10:35.445Z,48.60
2023-08-12T12:13:05.644Z,48.30
2023-08-12T12:15:40.658Z,49.20
2023-08-12T12:18:14.862Z,49.50
2023-08-12T12:20:59.131Z,47.70
2023-08-12T12:23:30.423Z,50.00
2023-08-12T12:26:03.379Z,49.90
2023-08-12T12:28:32.776Z,49.90
2023-08-12T12:30:59.937Z,51.10
2023-08-12T12:33:27.022Z,48.50
2023-08-12T12:35:58.185Z,48.80
2023-08-12T12:38:27.765Z,52.00
2023-08-12T12:40:54.890Z,51.40
2023-08-12T12:43:22.135Z,50.10
2023-08-12T12:45:49.237Z,49.30
2023-08-12T12:48:16.342Z,47.80
2023-08-12T12:50:43.376Z,48.40
2023-08-12T12:53:10.451Z,48.40
2023-08-12T12:55:37.726Z,48.20
2023-08-12T12:58:05.144Z,49.00
2023-08-12T13:00:32.124Z,47.90
2023-08-12T13:02:59.433Z,50.40
2023-08-12T13:07:54.101Z,51.00
2023-08-12T13:10:21.206Z,49.60
2023-08-12T13:12:49.515Z,50.50
2023-08-12T13:15:16.889Z,50.00
2023-08-12T13:20:12.713Z,50.10
2023-08-12T13:22:39.827Z,52.80
2023-08-12T13:25:07.695Z,53.10
2023-08-12T13:27:35.097Z,53.00
2023-08-12T13:40:40.927Z,52.20
2023-08-12T13:45:38.566Z,51.90
2023-08-12T13:48:06.281Z,51.00
2023-08-12T13:50:36.909Z,51.70
2023-08-12T13:53:04.244Z,52.20
2023-08-12T13:55:31.365Z,53.80
2023-08-12T13:58:16.809Z,53.20
2023-08-12T14:05:38.980Z,53.10
2023-08-12T14:08:07.035Z,52.50
2023-08-12T14:10:34.154Z,53.30
2023-08-12T14:13:07.822Z,52.60
2023-08-12T14:15:36.038Z,52.60
2023-08-12T14:18:03.452Z,55.10
2023-08-12T14:20:30.560Z,54.90
2023-08-12T14:22:58.448Z,54.30
2023-08-12T14:25:25.536Z,54.80
2023-08-12T14:27:52.748Z,56.40
2023-08-12T14:31:57.024Z,57.00
2023-08-12T14:45:00.414Z,57.50
2023-08-12T14:47:37.683Z,56.80
2023-08-12T14:50:05.579Z,57.70
2023-08-12T14:52:33.015Z,57.80
2023-08-12T14:55:00.199Z,58.20
2023-08-12T14:57:28.666Z,57.30
2023-08-12T14:59:55.773Z,57.70
2023-08-12T15:04:54.897Z,59.40
2023-08-12T15:09:50.352Z,59.20
2023-08-12T15:12:17.430Z,58.60
2023-08-12T15:14:44.474Z,58.10
2023-08-12T15:17:12.080Z,60.20
2023-08-12T15:22:06.609Z,60.00
2023-08-12T15:24:33.752Z,60.10
2023-08-12T15:27:00.814Z,60.90
2023-08-12T15:31:56.710Z,60.60
2023-08-12T15:36:52.761Z,62.30
2023-08-12T15:44:16.918Z,62.50
2023-08-12T15:49:12.409Z,63.90
2023-08-12T15:51:42.814Z,64.10
2023-08-12T15:54:09.915Z,64.60
2023-08-12T15:59:07.395Z,64.30
2023-08-12T16:04:04.460Z,65.30
2023-08-12T16:14:13.522Z,68.10
2023-08-12T16:24:04.179Z,69.30
2023-08-12T16:28:58.941Z,70.10
2023-08-12T16:31:26.564Z,78.10
2023-08-12T16:33:56.846Z,77.80
2023-08-12T16:51:16.036Z,83.00
2023-08-12T17:01:09.584Z,86.70
2023-08-12T17:03:36.762Z,87.00
2023-08-12T17:11:09.088Z,89.60
2023-08-12T17:33:22.889Z,93.70
2023-08-12T17:40:51.200Z,96.40
2023-08-12T17:58:17.384Z,99.90
2023-08-12T18:03:14.736Z,99.90
2023-08-12T18:10:42.273Z,99.90
2023-08-12T18:15:40.008Z,99.90
2023-08-12T18:30:49.562Z,99.90
2023-08-12T18:35:47.870Z,99.90
2023-08-12T18:38:15.136Z,99.90
2023-08-12T18:40:42.302Z,99.90
2023-08-12T18:43:14.770Z,99.90
2023-08-12T18:48:14.664Z,99.90
2023-08-12T18:58:20.033Z,99.90
2023-08-12T19:03:21.394Z,99.90
2023-08-12T19:08:23.192Z,99.90
2023-08-12T19:11:11.068Z,99.90
2023-08-12T19:13:45.807Z,99.90
2023-08-12T19:18:46.157Z,99.90
2023-08-12T19:23:45.796Z,99.90
2023-08-12T19:33:51.164Z,99.90
2023-08-12T19:36:21.467Z,99.90
2023-08-12T19:39:01.625Z,99.90
2023-08-12T19:41:40.246Z,99.90
2023-08-12T19:44:38.094Z,99.90
2023-08-12T19:52:26.690Z,99.90
2023-08-12T19:55:00.753Z,99.90
2023-08-12T20:00:13.800Z,99.90
2023-08-12T20:02:48.213Z,99.90
2023-08-12T20:05:46.271Z,99.90
2023-08-12T20:10:46.298Z,99.90
2023-08-12T20:20:56.276Z,99.90
2023-08-12T20:26:03.589Z,99.90
2023-08-12T20:36:15.936Z,99.90
2023-08-12T20:41:22.703Z,99.90
2023-08-12T20:46:30.849Z,99.90
2023-08-12T20:49:00.511Z,99.90
2023-08-12T20:53:55.506Z,99.90
2023-08-12T21:01:34.877Z,99.90
2023-08-12T21:04:34.819Z,99.90
2023-08-12T21:12:08.703Z,99.90
2023-08-12T21:17:11.347Z,99.90
2023-08-12T21:19:38.502Z,99.90
2023-08-12T21:24:37.710Z,99.90
2023-08-12T21:34:35.052Z,99.90
2023-08-12T21:37:04.583Z,99.90
2023-08-12T21:39:31.613Z,99.90
2023-08-12T21:41:58.830Z,99.90
2023-08-12T21:47:00.708Z,99.90
2023-08-12T21:49:27.877Z,99.90
2023-08-12T21:51:54.906Z,99.90
2023-08-12T21:54:29.745Z,99.90
2023-08-12T21:59:29.083Z,99.90
2023-08-12T22:06:55.833Z,99.90
2023-08-12T22:09:22.903Z,99.90
2023-08-12T22:11:58.929Z,99.90
2023-08-12T22:14:26.555Z,99.90
2023-08-12T22:16:54.677Z,99.90
2023-08-12T22:19:21.692Z,99.90
2023-08-12T22:21:48.833Z,99.90
2023-08-12T22:24:17.083Z,99.90
2023-08-12T22:26:44.485Z,99.90
2023-08-12T22:29:15.416Z,99.90
2023-08-12T22:31:42.618Z,99.90
2023-08-12T22:39:06.857Z,99.90
2023-08-12T22:41:35.100Z,99.90
2023-08-12T22:44:02.431Z,99.90
2023-08-12T22:46:29.495Z,99.90
2023-08-12T22:48:56.650Z,99.90
2023-08-12T22:51:23.763Z,99.90
2023-08-12T22:53:50.807Z,99.90
2023-08-12T22:56:18.233Z,99.90
2023-08-12T22:58:46.610Z,99.90
2023-08-12T23:01:13.784Z,99.90
2023-08-12T23:03:41.080Z,99.90
2023-08-12T23:06:08.281Z,99.90
2023-08-12T23:08:35.347Z,99.90
2023-08-12T23:13:29.919Z,99.90
2023-08-12T23:15:56.987Z,99.90
2023-08-12T23:18:23.967Z,99.90
2023-08-12T23:20:51.008Z,99.90
2023-08-12T23:23:18.047Z,99.90
2023-08-12T23:25:45.102Z,99.90
2023-08-12T23:30:39.761Z,99.90
2023-08-12T23:33:06.825Z,99.90
2023-08-12T23:35:34.669Z,99.90
2023-08-12T23:38:01.704Z,99.90
2023-08-12T23:40:29.416Z,99.90
2023-08-12T23:42:56.479Z,99.90
2023-08-12T23:45:23.628Z,99.90
2023-08-12T23:47:50.806Z,99.90
2023-08-12T23:50:17.971Z,99.90
2023-08-12T23:52:45.152Z,99.90
2023-08-12T23:55:12.328Z,99.90
2023-08-12T23:57:39.517Z,99.90
